Time;durP1;ratioP1;P1;durP2;ratioP2;P2;SDS_P1;SDS_P2;PMS_P1;PMS_P2;Temp;Humidity;BMP_temperature;BMP_pressure;BME280_temperature;BME280_humidity;BME280_pressure;Samples;Min_cycle;Max_cycle;Signal;HPM_P1;HPM_P2
2022/04/28 00:00:34;;;;;;;2.88;2.67;;;11.60;99.90;;;;;;5032763;28;20223;-80
2022/04/28 00:03:01;;;;;;;3.47;3.17;;;11.50;99.90;;;;;;5035601;28;20241;-78
2022/04/28 00:05:28;;;;;;;2.90;2.70;;;11.50;99.90;;;;;;5038080;28;20259;-76
2022/04/28 00:07:57;;;;;;;3.05;2.83;;;11.50;99.90;;;;;;5042802;28;20685;-75
2022/04/28 00:10:24;;;;;;;2.60;2.40;;;11.50;99.90;;;;;;5032603;28;20218;-76
2022/04/28 00:12:52;;;;;;;2.55;2.35;;;11.50;99.90;;;;;;5031327;28;20225;-76
2022/04/28 00:15:19;;;;;;;2.70;2.50;;;11.50;99.90;;;;;;5035608;28;20313;-77
2022/04/28 00:17:46;;;;;;;2.60;2.40;;;11.40;99.90;;;;;;5037321;28;20219;-76
2022/04/28 00:20:13;;;;;;;2.50;2.30;;;11.40;99.90;;;;;;5034556;28;20277;-74
2022/04/28 00:22:40;;;;;;;2.60;2.40;;;11.40;99.90;;;;;;5032213;28;20686;-75
2022/04/28 00:25:10;;;;;;;2.53;2.33;;;11.30;99.90;;;;;;5036716;28;20195;-79
2022/04/28 00:27:37;;;;;;;2.75;2.55;;;11.30;99.90;;;;;;5039014;28;20224;-78
2022/04/28 00:30:05;;;;;;;2.45;2.25;;;11.30;99.90;;;;;;5040219;28;20218;-80
2022/04/28 00:32:33;;;;;;;2.55;2.35;;;11.20;99.90;;;;;;5030806;28;20796;-79
2022/04/28 00:35:00;;;;;;;2.67;2.47;;;11.20;99.90;;;;;;5040740;28;20221;-80
2022/04/28 00:37:27;;;;;;;5.03;2.75;;;11.20;99.90;;;;;;5040949;28;20242;-76
2022/04/28 00:39:54;;;;;;;3.20;2.90;;;11.10;99.90;;;;;;5038813;28;20215;-75
2022/04/28 00:42:22;;;;;;;2.90;2.70;;;11.00;99.90;;;;;;5030355;28;20980;-76
2022/04/28 00:44:49;;;;;;;2.60;2.40;;;11.00;99.90;;;;;;5032645;28;20230;-76
2022/04/28 00:47:17;;;;;;;2.05;1.88;;;11.00;99.90;;;;;;5036605;28;20661;-76
2022/04/28 00:52:29;;;;;;;1.95;1.85;;;11.00;99.90;;;;;;5032897;28;20241;-77
2022/04/28 00:54:57;;;;;;;1.95;1.85;;;11.00;99.90;;;;;;5030499;28;20282;-77
2022/04/28 00:57:26;;;;;;;2.03;1.92;;;11.00;99.90;;;;;;5029901;28;20332;-76
2022/04/28 00:59:54;;;;;;;2.20;2.10;;;11.00;99.90;;;;;;5041006;28;20206;-76
2022/04/28 01:02:21;;;;;;;2.08;1.98;;;10.90;99.90;;;;;;5036122;28;20223;-77
2022/04/28 01:04:48;;;;;;;2.00;1.90;;;10.90;99.90;;;;;;5038493;28;20187;-78
2022/04/28 01:07:17;;;;;;;2.30;2.20;;;10.90;99.90;;;;;;5028908;28;20207;-77
2022/04/28 01:09:44;;;;;;;2.10;2.00;;;10.80;99.90;;;;;;5033080;28;20235;-75
2022/04/28 01:12:15;;;;;;;2.17;2.08;;;10.80;99.90;;;;;;5031023;28;20191;-76
2022/04/28 01:14:44;;;;;;;2.53;2.40;;;10.90;99.90;;;;;;5035781;28;20266;-75
2022/04/28 01:17:12;;;;;;;2.35;2.15;;;10.80;99.90;;;;;;5036282;28;20195;-75
2022/04/28 01:19:39;;;;;;;2.72;2.53;;;10.80;99.90;;;;;;5034693;28;20242;-75
2022/04/28 01:22:08;;;;;;;2.40;2.30;;;10.90;99.90;;;;;;5034324;28;20233;-77
2022/04/28 01:24:37;;;;;;;2.25;2.05;;;10.90;99.90;;;;;;5035243;28;20254;-75
2022/04/28 01:27:06;;;;;;;2.40;2.30;;;10.90;99.90;;;;;;5035875;28;20241;-78
2022/04/28 01:29:33;;;;;;;2.40;2.20;;;10.90;99.90;;;;;;5032549;28;20252;-77
2022/04/28 01:32:01;;;;;;;2.70;2.50;;;10.90;99.90;;;;;;5036285;28;20279;-77
2022/04/28 01:34:28;;;;;;;2.00;1.90;;;10.90;99.90;;;;;;5030231;28;20229;-75
2022/04/28 01:36:55;;;;;;;2.15;2.05;;;10.90;99.90;;;;;;5035338;28;20206;-75
2022/04/28 01:39:24;;;;;;;2.00;1.90;;;10.90;99.90;;;;;;5031649;28;20227;-76
2022/04/28 01:41:51;;;;;;;1.77;1.67;;;10.90;99.90;;;;;;5029108;28;20701;-76
2022/04/28 01:44:19;;;;;;;2.10;2.00;;;10.90;99.90;;;;;;5030328;28;20222;-76
2022/04/28 01:46:46;;;;;;;1.92;1.83;;;10.80;99.90;;;;;;5032453;28;20195;-76
2022/04/28 01:49:13;;;;;;;2.30;2.20;;;10.80;99.90;;;;;;5029023;28;20592;-75
2022/04/28 01:57:10;;;;;;;1.60;1.50;;;10.70;99.90;;;;;;5029283;28;20226;-77
2022/04/28 01:59:37;;;;;;;1.65;1.55;;;10.60;99.90;;;;;;5033951;28;20231;-77
2022/04/28 02:02:05;;;;;;;1.55;1.50;;;10.60;99.90;;;;;;5032692;28;20235;-77
2022/04/28 02:04:32;;;;;;;2.15;1.95;;;10.50;99.90;;;;;;5030276;28;20643;-75
2022/04/28 02:06:59;;;;;;;1.95;1.85;;;10.50;99.90;;;;;;5027073;28;20211;-80
2022/04/28 02:09:28;;;;;;;1.85;1.75;;;10.60;99.90;;;;;;5033979;28;20235;-77
2022/04/28 02:11:55;;;;;;;2.05;1.95;;;10.50;99.90;;;;;;5035595;28;20223;-76
2022/04/28 02:14:22;;;;;;;1.92;1.83;;;10.50;99.90;;;;;;5026648;28;20227;-76
2022/04/28 02:16:49;;;;;;;1.90;1.80;;;10.50;99.90;;;;;;5025939;28;20214;-75
2022/04/28 02:19:16;;;;;;;1.85;1.75;;;10.40;99.90;;;;;;5027512;28;20235;-77
2022/04/28 02:21:43;;;;;;;2.00;1.90;;;10.40;99.90;;;;;;5031910;28;20705;-76
2022/04/28 02:24:10;;;;;;;1.60;1.50;;;10.40;99.90;;;;;;5031352;28;20211;-79
2022/04/28 02:26:38;;;;;;;1.83;1.73;;;10.40;99.90;;;;;;5033777;28;20196;-79
2022/04/28 02:29:06;;;;;;;1.85;1.75;;;10.40;99.90;;;;;;5030541;28;20288;-78
2022/04/28 02:31:33;;;;;;;1.83;1.73;;;10.40;99.90;;;;;;5030511;28;20717;-76
2022/04/28 02:34:00;;;;;;;2.08;1.98;;;10.30;99.90;;;;;;5036979;28;20223;-76
2022/04/28 02:36:27;;;;;;;1.85;1.75;;;10.30;99.90;;;;;;5030985;28;21456;-77
2022/04/28 02:38:54;;;;;;;2.35;2.25;;;10.30;99.90;;;;;;5036778;28;20223;-76
2022/04/28 02:41:21;;;;;;;2.00;1.90;;;10.30;99.90;;;;;;5033935;28;20227;-77
2022/04/28 02:43:51;;;;;;;1.88;1.77;;;10.20;99.90;;;;;;5030276;28;20224;-78
2022/04/28 02:46:19;;;;;;;2.10;2.00;;;10.20;99.90;;;;;;5034285;28;21722;-76
2022/04/28 02:48:46;;;;;;;1.85;1.75;;;10.10;99.90;;;;;;5032786;28;20219;-77
2022/04/28 02:51:13;;;;;;;2.10;2.00;;;10.10;99.90;;;;;;5035297;28;20202;-75
2022/04/28 02:53:40;;;;;;;2.50;2.40;;;10.10;99.90;;;;;;5032431;28;20234;-77
2022/04/28 02:56:07;;;;;;;2.47;2.28;;;10.00;99.90;;;;;;5029538;28;20207;-76
2022/04/28 02:58:35;;;;;;;1.95;1.85;;;10.00;99.90;;;;;;5030314;28;20234;-78
2022/04/28 03:01:04;;;;;;;2.15;2.05;;;10.00;99.90;;;;;;5034512;28;20674;-76
2022/04/28 03:03:31;;;;;;;2.22;2.13;;;10.00;99.90;;;;;;5032242;28;20312;-77
2022/04/28 03:11:27;;;;;;;2.13;2.03;;;9.80;99.90;;;;;;5033287;28;20266;-77
2022/04/28 03:13:54;;;;;;;2.42;2.33;;;9.80;99.90;;;;;;5035255;28;20215;-77
2022/04/28 03:16:23;;;;;;;1.90;1.80;;;9.70;99.90;;;;;;5032111;28;20214;-77
2022/04/28 03:18:50;;;;;;;1.90;1.80;;;9.70;99.90;;;;;;5029688;28;20312;-79
2022/04/28 03:21:17;;;;;;;1.90;1.80;;;9.70;99.90;;;;;;5033429;28;20195;-76
2022/04/28 03:23:44;;;;;;;2.10;2.00;;;9.70;99.90;;;;;;5032651;28;20234;-77
2022/04/28 03:26:12;;;;;;;2.22;2.13;;;9.70;99.90;;;;;;5034578;28;20196;-77
2022/04/28 03:28:39;;;;;;;1.90;1.80;;;9.60;99.90;;;;;;5035466;28;20528;-76
2022/04/28 03:31:08;;;;;;;2.03;1.92;;;9.60;99.90;;;;;;5034116;28;20204;-76
2022/04/28 03:33:37;;;;;;;2.10;2.00;;;9.50;99.90;;;;;;5035832;28;20219;-77
2022/04/28 03:36:50;;;;;;;1.80;1.70;;;9.50;99.90;;;;;;5029123;28;20207;-76
2022/04/28 03:38:52;;;;;;;2.28;2.08;;;9.40;99.90;;;;;;5037751;28;20219;-77
2022/04/28 03:41:20;;;;;;;1.90;1.80;;;9.40;99.90;;;;;;5033076;28;20254;-80
2022/04/28 03:43:47;;;;;;;2.00;1.90;;;9.40;99.90;;;;;;5036527;28;20219;-77
2022/04/28 03:46:15;;;;;;;2.33;2.00;;;9.40;99.90;;;;;;5034308;28;20226;-77
2022/04/28 03:48:43;;;;;;;1.85;1.75;;;9.30;99.90;;;;;;5031119;28;20228;-78
2022/04/28 03:51:10;;;;;;;2.78;2.58;;;9.30;99.90;;;;;;5038964;28;20618;-77
2022/04/28 03:53:38;;;;;;;2.25;2.15;;;9.20;99.90;;;;;;5033600;28;20219;-76
2022/04/28 03:56:05;;;;;;;1.90;1.80;;;9.10;99.90;;;;;;5035445;28;20238;-76
2022/04/28 03:58:32;;;;;;;2.17;2.08;;;9.10;99.90;;;;;;5032599;28;20234;-75
2022/04/28 04:01:00;;;;;;;2.00;1.90;;;9.10;99.90;;;;;;5040836;28;20475;-77
2022/04/28 04:03:27;;;;;;;1.95;1.85;;;9.10;99.90;;;;;;5035479;28;20816;-76
2022/04/28 04:05:55;;;;;;;2.15;2.05;;;9.10;99.90;;;;;;5035823;28;20260;-76
2022/04/28 04:08:22;;;;;;;2.35;2.17;;;9.10;99.90;;;;;;5036010;28;20226;-80
2022/04/28 04:10:49;;;;;;;1.83;1.73;;;9.10;99.90;;;;;;5037201;28;20601;-80
2022/04/28 04:13:17;;;;;;;2.05;1.95;;;9.10;99.90;;;;;;5034888;28;20227;-78
2022/04/28 04:15:43;;;;;;;2.20;2.10;;;9.00;99.90;;;;;;5032128;28;20662;-75
2022/04/28 04:18:11;;;;;;;1.80;1.70;;;9.00;99.90;;;;;;5037905;28;20199;-75
2022/04/28 04:20:38;;;;;;;1.92;1.83;;;8.90;99.90;;;;;;5068779;22;20603;-74
2022/04/28 04:23:07;;;;;;;2.10;2.00;;;9.00;99.90;;;;;;5058108;28;20223;-75
2022/04/28 04:25:34;;;;;;;2.05;1.95;;;9.00;99.90;;;;;;5061549;28;20202;-75
2022/04/28 04:28:01;;;;;;;1.80;1.70;;;9.00;99.90;;;;;;5057927;28;20665;-75
2022/04/28 04:33:13;;;;;;;2.88;2.53;;;9.00;99.90;;;;;;5064766;28;20561;-74
2022/04/28 04:35:40;;;;;;;3.05;2.85;;;9.00;99.90;;;;;;5065346;28;20205;-75
2022/04/28 04:38:08;;;;;;;2.88;2.67;;;9.10;99.90;;;;;;5065313;28;20202;-76
2022/04/28 04:40:35;;;;;;;2.90;2.70;;;9.10;99.90;;;;;;5067748;28;20267;-76
2022/04/28 04:43:03;;;;;;;2.90;2.70;;;9.10;99.90;;;;;;5063361;28;21381;-76
2022/04/28 04:45:30;;;;;;;2.30;2.20;;;9.10;99.90;;;;;;5067353;28;20218;-76
2022/04/28 04:47:57;;;;;;;2.70;2.50;;;9.10;99.90;;;;;;5065785;28;20268;-76
2022/04/28 04:50:24;;;;;;;2.50;2.40;;;9.10;99.90;;;;;;5064034;28;20645;-75
2022/04/28 04:52:51;;;;;;;2.55;2.35;;;9.10;99.90;;;;;;5068937;28;20206;-76
2022/04/28 04:55:19;;;;;;;2.22;2.10;;;9.30;99.90;;;;;;5065547;28;20275;-76
2022/04/28 04:57:47;;;;;;;2.60;2.40;;;9.50;99.90;;;;;;5065946;28;20195;-75
2022/04/28 05:00:14;;;;;;;2.20;2.10;;;9.70;99.90;;;;;;5066665;28;20692;-75
2022/04/28 05:02:41;;;;;;;2.30;2.10;;;9.90;99.90;;;;;;5065522;28;20214;-76
2022/04/28 05:05:09;;;;;;;2.63;2.42;;;9.90;99.90;;;;;;5067544;28;20214;-75
2022/04/28 05:07:36;;;;;;;2.35;2.25;;;9.80;99.90;;;;;;5066459;28;20218;-76
2022/04/28 05:10:04;;;;;;;2.30;2.20;;;9.80;99.90;;;;;;5066629;28;20293;-76
2022/04/28 05:12:32;;;;;;;2.40;2.30;;;10.00;99.90;;;;;;5063697;28;20322;-76
2022/04/28 05:14:59;;;;;;;1.98;1.88;;;10.20;99.90;;;;;;5065707;28;20218;-76
2022/04/28 05:17:26;;;;;;;2.17;2.08;;;10.50;99.90;;;;;;5066240;28;20562;-76
2022/04/28 05:19:56;;;;;;;2.05;1.95;;;10.80;99.90;;;;;;5064849;28;20214;-76
2022/04/28 05:22:23;;;;;;;2.08;1.98;;;11.00;99.90;;;;;;5065786;28;20222;-75
2022/04/28 05:24:50;;;;;;;2.33;2.22;;;11.10;99.90;;;;;;5069036;28;20221;-75
2022/04/28 05:27:17;;;;;;;2.20;2.10;;;11.20;99.90;;;;;;5065582;28;20198;-75
2022/04/28 05:29:46;;;;;;;1.98;1.88;;;11.40;99.90;;;;;;5063541;28;20225;-75
2022/04/28 05:32:13;;;;;;;2.20;2.10;;;11.50;99.90;;;;;;5068690;28;20202;-75
2022/04/28 05:34:40;;;;;;;1.90;1.80;;;11.70;99.90;;;;;;5063110;28;20218;-75
2022/04/28 05:37:07;;;;;;;2.17;2.08;;;11.80;99.90;;;;;;5062811;28;20632;-75
2022/04/28 05:39:35;;;;;;;2.08;1.98;;;11.90;99.90;;;;;;5068013;28;20283;-75
2022/04/28 05:42:03;;;;;;;2.00;1.90;;;12.00;99.90;;;;;;5063457;28;20190;-75
2022/04/28 05:47:16;;;;;;;2.40;2.20;;;12.10;99.90;;;;;;5064486;28;20209;-76
2022/04/28 05:49:43;;;;;;;2.05;1.95;;;12.20;99.90;;;;;;5067464;28;20222;-75
2022/04/28 05:52:10;;;;;;;2.10;2.00;;;12.20;99.90;;;;;;5067246;28;20263;-76
2022/04/28 05:54:39;;;;;;;2.05;1.95;;;12.10;99.90;;;;;;5065576;28;20287;-75
2022/04/28 05:57:06;;;;;;;2.28;2.10;;;12.20;99.90;;;;;;5060113;28;20256;-75
2022/04/28 05:59:34;;;;;;;2.17;2.08;;;12.20;99.90;;;;;;5066137;28;20228;-74
2022/04/28 06:02:02;;;;;;;2.28;2.17;;;12.30;99.90;;;;;;5068075;28;20194;-76
2022/04/28 06:04:30;;;;;;;1.88;1.77;;;12.40;99.90;;;;;;5064643;28;20218;-75
2022/04/28 06:06:57;;;;;;;2.10;2.00;;;12.60;99.90;;;;;;5065953;28;20194;-75
2022/04/28 06:09:24;;;;;;;3.22;2.03;;;12.80;99.90;;;;;;5065389;28;20371;-78
2022/04/28 06:11:51;;;;;;;2.13;1.92;;;13.10;99.90;;;;;;5064588;28;20209;-79
2022/04/28 06:14:18;;;;;;;2.90;1.70;;;13.30;99.90;;;;;;5066424;28;20222;-77
2022/04/28 06:16:45;;;;;;;2.47;2.03;;;13.30;99.90;;;;;;5066614;28;20664;-77
2022/04/28 06:19:12;;;;;;;2.03;1.83;;;13.30;99.90;;;;;;5066470;28;20222;-76
2022/04/28 06:21:41;;;;;;;2.03;1.80;;;13.40;99.90;;;;;;5066618;28;20604;-77
2022/04/28 06:24:08;;;;;;;1.92;1.83;;;13.40;99.90;;;;;;5062787;28;20237;-77
2022/04/28 06:26:35;;;;;;;1.92;1.83;;;13.20;99.90;;;;;;5062732;28;20201;-76
2022/04/28 06:29:02;;;;;;;2.08;1.98;;;13.30;99.90;;;;;;5060477;28;20226;-77
2022/04/28 06:31:29;;;;;;;1.73;1.63;;;13.50;99.90;;;;;;5062904;28;20206;-77
2022/04/28 06:33:56;;;;;;;2.10;2.00;;;13.60;99.90;;;;;;5062312;28;20283;-76
2022/04/28 06:36:23;;;;;;;2.13;2.03;;;13.60;99.90;;;;;;5062105;28;20255;-78
2022/04/28 06:38:51;;;;;;;2.50;2.00;;;13.70;99.90;;;;;;5065964;28;20640;-77
2022/04/28 06:41:18;;;;;;;2.05;1.95;;;13.80;99.90;;;;;;5068984;28;20236;-77
2022/04/28 06:43:45;;;;;;;2.30;2.10;;;13.90;99.90;;;;;;5066108;28;20661;-77
2022/04/28 06:46:15;;;;;;;2.10;1.90;;;14.00;99.90;;;;;;5065166;28;20194;-76
2022/04/28 06:48:42;;;;;;;2.83;2.15;;;14.10;99.90;;;;;;5069039;28;20197;-78
2022/04/28 06:51:09;;;;;;;2.30;2.10;;;14.20;99.90;;;;;;5060505;28;20466;-77
2022/04/28 06:53:38;;;;;;;2.88;2.13;;;14.20;99.90;;;;;;5064797;28;20198;-76
2022/04/28 06:56:07;;;;;;;2.10;1.90;;;14.40;99.90;;;;;;5066073;28;20286;-77
2022/04/28 06:58:35;;;;;;;1.90;1.80;;;14.50;99.90;;;;;;5067440;28;20259;-77
2022/04/28 07:01:02;;;;;;;2.25;2.05;;;14.80;99.90;;;;;;5062490;28;20225;-77
2022/04/28 07:03:29;;;;;;;2.20;2.00;;;14.90;99.90;;;;;;5071614;28;20996;-77
2022/04/28 07:05:56;;;;;;;2.60;2.40;;;15.10;99.90;;;;;;5063161;28;20443;-77
2022/04/28 07:08:23;;;;;;;1.92;1.83;;;15.20;99.90;;;;;;5068550;28;20257;-76
2022/04/28 07:10:50;;;;;;;1.70;1.60;;;15.10;99.90;;;;;;5062552;28;20731;-78
2022/04/28 07:13:19;;;;;;;2.38;2.17;;;15.10;99.90;;;;;;5070126;28;20202;-76
2022/04/28 07:15:46;;;;;;;2.20;2.03;;;15.00;99.90;;;;;;5064030;28;20685;-77
2022/04/28 07:18:14;;;;;;;2.05;1.85;;;15.00;99.90;;;;;;5067045;28;20202;-77
2022/04/28 07:20:41;;;;;;;2.22;2.03;;;15.10;99.90;;;;;;5065552;28;20225;-77
2022/04/28 07:23:09;;;;;;;1.77;1.67;;;15.10;99.90;;;;;;5069306;28;20287;-77
2022/04/28 07:25:36;;;;;;;1.80;1.70;;;15.10;99.90;;;;;;5067394;28;20287;-76
2022/04/28 07:28:03;;;;;;;1.83;1.70;;;15.20;99.90;;;;;;5062450;28;20216;-77
2022/04/28 07:30:32;;;;;;;1.55;1.45;;;15.20;99.90;;;;;;5062782;28;20213;-77
2022/04/28 07:32:59;;;;;;;2.00;1.90;;;15.30;99.90;;;;;;5062339;28;20772;-76
2022/04/28 07:35:26;;;;;;;1.73;1.63;;;15.60;99.90;;;;;;5061215;28;20225;-78
2022/04/28 07:37:53;;;;;;;3.30;1.80;;;15.60;99.90;;;;;;5065126;28;20199;-76
2022/04/28 07:40:20;;;;;;;1.85;1.75;;;15.60;99.90;;;;;;5064629;28;21178;-76
2022/04/28 07:42:47;;;;;;;2.03;1.83;;;15.70;99.90;;;;;;5063422;28;20514;-78
2022/04/28 07:45:14;;;;;;;1.58;1.48;;;15.80;99.90;;;;;;5058287;28;20703;-77
2022/04/28 07:47:43;;;;;;;2.15;1.95;;;16.00;99.90;;;;;;5067887;28;20682;-77
2022/04/28 07:50:11;;;;;;;1.90;1.80;;;16.10;99.90;;;;;;5062536;28;20675;-77
2022/04/28 07:52:39;;;;;;;2.28;1.80;;;16.30;99.90;;;;;;5063039;28;20262;-76
2022/04/28 07:55:07;;;;;;;1.73;1.63;;;16.40;99.90;;;;;;5064047;28;20268;-76
2022/04/28 07:57:34;;;;;;;2.25;1.80;;;16.50;99.90;;;;;;5065861;28;20201;-76
2022/04/28 08:00:03;;;;;;;1.95;1.85;;;16.60;99.90;;;;;;5065669;28;20742;-76
2022/04/28 08:02:31;;;;;;;2.38;1.60;;;16.60;99.90;;;;;;5063767;28;20190;-75
2022/04/28 08:05:00;;;;;;;1.70;1.60;;;16.60;99.90;;;;;;5057808;28;20243;-76
2022/04/28 08:07:28;;;;;;;2.17;2.03;;;16.70;99.90;;;;;;5065814;28;20656;-76
2022/04/28 08:09:55;;;;;;;1.77;1.67;;;16.90;99.90;;;;;;5062533;28;20696;-77
2022/04/28 08:12:22;;;;;;;1.55;1.45;;;17.10;99.90;;;;;;5060919;28;20536;-76
2022/04/28 08:14:49;;;;;;;2.20;1.67;;;17.20;99.90;;;;;;5060562;28;20217;-75
2022/04/28 08:17:16;;;;;;;1.75;1.65;;;17.20;99.90;;;;;;5059727;28;20206;-76
2022/04/28 08:19:43;;;;;;;1.90;1.80;;;17.20;99.90;;;;;;5058217;28;20454;-73
2022/04/28 08:22:12;;;;;;;2.10;1.90;;;17.30;99.90;;;;;;5059823;28;20203;-75
2022/04/28 08:24:39;;;;;;;2.05;1.95;;;17.20;99.90;;;;;;5061846;28;20331;-75
2022/04/28 08:27:06;;;;;;;1.63;1.52;;;17.30;99.90;;;;;;5059084;28;20195;-76
2022/04/28 08:29:33;;;;;;;2.08;1.98;;;17.60;99.90;;;;;;5060187;28;20720;-76
2022/04/28 08:32:00;;;;;;;1.92;1.83;;;17.70;99.90;;;;;;5070614;28;20293;-76
2022/04/28 08:34:27;;;;;;;2.70;1.98;;;17.70;99.90;;;;;;5063217;28;20314;-76
2022/04/28 08:36:55;;;;;;;2.22;2.05;;;17.60;99.90;;;;;;5067556;28;20202;-77
2022/04/28 08:39:23;;;;;;;2.30;1.80;;;17.60;99.90;;;;;;5063413;28;20640;-75
2022/04/28 08:41:50;;;;;;;1.60;1.50;;;17.70;99.90;;;;;;5056660;28;20206;-76
2022/04/28 08:44:19;;;;;;;2.15;1.73;;;17.60;99.90;;;;;;5055720;28;20214;-76
2022/04/28 08:46:52;;;;;;;2.00;1.90;;;17.60;99.90;;;;;;5060875;28;20735;-75
2022/04/28 08:49:22;;;;;;;1.83;1.50;;;17.80;99.90;;;;;;5062126;28;20218;-76
2022/04/28 08:51:52;;;;;;;1.70;1.60;;;17.90;99.90;;;;;;5063027;28;20225;-77
2022/04/28 08:54:19;;;;;;;1.55;1.45;;;18.00;99.90;;;;;;5060198;28;21004;-76
2022/04/28 08:56:48;;;;;;;1.50;1.40;;;18.00;99.90;;;;;;5064234;28;20386;-75
2022/04/28 08:59:15;;;;;;;1.73;1.60;;;18.00;99.90;;;;;;5062737;28;20198;-76
2022/04/28 09:01:42;;;;;;;1.45;1.35;;;17.90;99.90;;;;;;5067546;28;20289;-75
2022/04/28 09:04:11;;;;;;;2.13;1.50;;;18.00;99.90;;;;;;5065212;28;20614;-75
2022/04/28 09:06:39;;;;;;;4.18;1.60;;;18.10;99.90;;;;;;5067274;28;20198;-76
2022/04/28 09:09:07;;;;;;;1.50;1.40;;;18.40;99.90;;;;;;5059839;28;20202;-76
2022/04/28 09:11:37;;;;;;;4.40;1.90;;;18.80;99.90;;;;;;5065741;28;20279;-76
2022/04/28 09:14:11;;;;;;;2.13;1.80;;;19.00;99.90;;;;;;5066054;28;20289;-75
2022/04/28 09:16:42;;;;;;;1.80;1.65;;;19.20;99.90;;;;;;5064361;28;20219;-75
2022/04/28 09:19:09;;;;;;;4.57;1.95;;;19.10;99.90;;;;;;5064744;28;20298;-76
2022/04/28 09:21:37;;;;;;;2.05;1.90;;;19.20;99.90;;;;;;5065555;28;20218;-75
2022/04/28 09:24:05;;;;;;;2.17;1.80;;;19.20;99.90;;;;;;5066079;28;20287;-76
2022/04/28 09:26:33;;;;;;;2.65;1.80;;;19.10;99.90;;;;;;5063683;28;20575;-76
2022/04/28 09:29:02;;;;;;;1.77;1.50;;;19.10;99.90;;;;;;5061851;28;20224;-76
2022/04/28 09:31:34;;;;;;;2.60;1.48;;;19.10;99.90;;;;;;5056956;28;20290;-76
2022/04/28 09:34:10;;;;;;;1.60;1.50;;;19.10;99.90;;;;;;5067816;28;20644;-76
2022/04/28 09:36:38;;;;;;;1.55;1.42;;;19.20;99.90;;;;;;5064096;28;20221;-76
2022/04/28 09:39:06;;;;;;;1.70;1.60;;;19.30;99.90;;;;;;5061914;28;20217;-77
2022/04/28 09:44:20;;;;;;;1.70;1.60;;;19.70;99.90;;;;;;5062670;28;20469;-77
2022/04/28 09:46:49;;;;;;;1.58;1.40;;;19.60;99.90;;;;;;5062047;28;20195;-76
2022/04/28 09:49:20;;;;;;;1.42;1.33;;;19.70;99.90;;;;;;5063838;28;20214;-77
2022/04/28 09:51:47;;;;;;;2.28;1.50;;;19.70;99.90;;;;;;5062405;28;20222;-76
2022/04/28 09:54:17;;;;;;;1.70;1.60;;;19.60;99.90;;;;;;5059971;28;20925;-75
2022/04/28 09:56:45;;;;;;;1.77;1.42;;;19.70;99.90;;;;;;5064452;28;20218;-76
2022/04/28 09:59:13;;;;;;;1.85;1.10;;;19.80;99.90;;;;;;5060979;28;20194;-76
2022/04/28 10:01:42;;;;;;;1.60;1.50;;;19.80;99.90;;;;;;5063042;28;20221;-76
2022/04/28 10:04:10;;;;;;;1.58;1.30;;;19.70;99.90;;;;;;5058303;28;20218;-75
2022/04/28 10:06:39;;;;;;;1.63;1.52;;;19.70;99.90;;;;;;5056804;28;20217;-77
2022/04/28 10:09:12;;;;;;;1.55;1.45;;;19.90;99.90;;;;;;5056937;28;20648;-75
2022/04/28 10:11:39;;;;;;;1.60;1.50;;;19.80;99.90;;;;;;5055331;28;20222;-76
2022/04/28 10:14:06;;;;;;;1.70;1.60;;;20.00;99.90;;;;;;5055220;28;20187;-76
2022/04/28 10:16:35;;;;;;;1.08;1.08;;;20.10;99.90;;;;;;5057530;28;20225;-76
2022/04/28 10:19:06;;;;;;;1.20;1.10;;;20.30;99.90;;;;;;5058292;28;20198;-76
2022/04/28 10:21:40;;;;;;;1.63;1.50;;;20.40;99.90;;;;;;5091857;22;20235;-74
2022/04/28 10:32:55;;;;;;;1.35;1.25;;;20.40;99.90;;;;;;5023332;28;20567;-77
2022/04/28 10:35:43;;;;;;;2.30;1.42;;;20.70;99.90;;;;;;5029509;28;20277;-76
2022/04/28 10:38:15;;;;;;;1.50;1.40;;;20.80;99.90;;;;;;5028716;28;20202;-74
2022/04/28 10:43:24;;;;;;;1.27;1.25;;;20.60;99.90;;;;;;5050779;28;20203;-74
2022/04/28 10:45:54;;;;;;;1.30;1.20;;;20.80;99.90;;;;;;5051317;28;20222;-75
2022/04/28 10:48:27;;;;;;;1.30;1.20;;;20.70;99.90;;;;;;5038561;28;20291;-75
2022/04/28 10:51:11;;;;;;;1.40;1.30;;;20.60;99.90;;;;;;5046489;28;20705;-75
2022/04/28 10:54:00;;;;;;;1.30;1.20;;;20.60;99.90;;;;;;5027438;28;20265;-75
2022/04/28 10:56:28;;;;;;;2.53;1.30;;;20.90;99.90;;;;;;5037830;28;20219;-77
2022/04/28 10:59:00;;;;;;;1.50;1.38;;;20.70;99.90;;;;;;5026435;28;20204;-76
2022/04/28 11:01:29;;;;;;;1.55;1.10;;;20.80;99.90;;;;;;5020033;28;20220;-75
2022/04/28 11:03:59;;;;;;;3.33;1.27;;;20.90;99.90;;;;;;5028750;28;20224;-75
2022/04/28 11:06:30;;;;;;;1.50;1.40;;;21.00;99.90;;;;;;5023512;28;20231;-77
2022/04/28 11:09:01;;;;;;;1.70;1.33;;;20.90;99.90;;;;;;5018000;28;20198;-76
2022/04/28 11:11:42;;;;;;;1.23;1.23;;;20.90;99.90;;;;;;5019838;28;20231;-76
2022/04/28 11:14:10;;;;;;;2.05;1.85;;;20.90;99.90;;;;;;5018901;28;20180;-75
2022/04/28 11:16:37;;;;;;;1.92;1.80;;;20.70;99.90;;;;;;5019065;28;20223;-76
2022/04/28 11:19:05;;;;;;;1.95;1.75;;;20.70;99.90;;;;;;5024428;28;20250;-75
2022/04/28 11:21:32;;;;;;;1.73;1.63;;;20.70;99.90;;;;;;5013696;28;20250;-74
2022/04/28 11:24:01;;;;;;;1.92;1.73;;;20.90;99.90;;;;;;5013962;28;20482;-76
2022/04/28 11:26:28;;;;;;;1.63;1.45;;;20.90;99.90;;;;;;5023237;28;20663;-76
2022/04/28 11:28:56;;;;;;;2.20;1.58;;;21.20;99.90;;;;;;5019247;28;20237;-77
2022/04/28 11:31:23;;;;;;;1.98;1.77;;;21.40;99.90;;;;;;5019191;28;20625;-77
2022/04/28 11:33:51;;;;;;;1.58;1.48;;;21.50;99.90;;;;;;5020817;28;20259;-77
2022/04/28 11:36:24;;;;;;;1.73;1.60;;;21.60;99.90;;;;;;5021073;28;20281;-76
2022/04/28 11:38:54;;;;;;;3.45;1.90;;;21.80;99.90;;;;;;5029386;28;20639;-76
2022/04/28 11:41:41;;;;;;;2.00;1.40;;;21.70;99.90;;;;;;5028935;28;20226;-74
2022/04/28 11:44:09;;;;;;;2.28;1.50;;;21.70;99.90;;;;;;5025851;28;20230;-75
2022/04/28 11:46:38;;;;;;;1.70;1.60;;;21.90;99.90;;;;;;5026934;28;20236;-74
2022/04/28 11:49:05;;;;;;;2.97;1.42;;;21.90;99.90;;;;;;5017181;28;20744;-75
2022/04/28 11:51:36;;;;;;;1.70;1.60;;;21.90;99.90;;;;;;5024761;28;20436;-74
2022/04/28 11:54:04;;;;;;;1.67;1.58;;;21.80;99.90;;;;;;5018782;28;20196;-76
2022/04/28 11:56:33;;;;;;;2.90;1.70;;;21.80;99.90;;;;;;5018424;28;20302;-75
2022/04/28 11:59:05;;;;;;;1.42;1.33;;;21.80;99.90;;;;;;5018978;28;20223;-75
2022/04/28 12:01:35;;;;;;;1.50;1.40;;;22.20;99.90;;;;;;5015172;28;20644;-73
2022/04/28 12:04:03;;;;;;;2.10;1.20;;;22.30;99.90;;;;;;5016010;28;20200;-73
2022/04/28 12:06:30;;;;;;;1.55;1.45;;;22.30;99.90;;;;;;5016124;28;20223;-73
2022/04/28 12:08:58;;;;;;;2.50;1.50;;;22.30;99.90;;;;;;5019212;28;20195;-76
2022/04/28 12:14:25;;;;;;;1.85;1.42;;;22.30;99.90;;;;;;5016075;28;20319;-72
2022/04/28 12:19:53;;;;;;;2.22;1.30;;;22.40;97.90;;;;;;5014535;28;20608;-72
2022/04/28 12:22:29;;;;;;;2.45;1.10;;;22.40;99.50;;;;;;5015109;28;20219;-73
2022/04/28 12:25:06;;;;;;;1.20;1.10;;;22.50;98.90;;;;;;5019457;28;21755;-74
2022/04/28 12:27:55;;;;;;;1.30;1.20;;;22.60;98.70;;;;;;5013108;28;20223;-74
2022/04/28 12:30:23;;;;;;;0.80;0.80;;;22.60;95.10;;;;;;5008907;28;20215;-73
2022/04/28 12:32:52;;;;;;;1.30;1.20;;;22.70;95.60;;;;;;5011940;28;20196;-74
2022/04/28 12:35:29;;;;;;;1.83;1.02;;;22.70;94.50;;;;;;5013803;28;20203;-75
2022/04/28 12:37:59;;;;;;;1.33;1.13;;;22.70;96.80;;;;;;5016439;28;20650;-75
2022/04/28 12:40:27;;;;;;;1.48;1.30;;;23.00;96.00;;;;;;5013766;28;20309;-73
2022/04/28 12:42:57;;;;;;;0.90;0.90;;;22.90;95.20;;;;;;5016829;28;20651;-74
2022/04/28 12:45:51;;;;;;;1.25;1.15;;;22.90;94.30;;;;;;5017597;28;20392;-74
2022/04/28 12:48:25;;;;;;;2.45;1.30;;;23.10;94.30;;;;;;5015416;28;20202;-75
2022/04/28 12:51:08;;;;;;;2.15;1.00;;;23.30;94.40;;;;;;5013760;28;20227;-76
2022/04/28 12:53:36;;;;;;;1.45;1.35;;;23.40;92.50;;;;;;5013963;28;20455;-72
2022/04/28 12:56:06;;;;;;;1.23;1.10;;;23.20;93.60;;;;;;5020676;28;20219;-71
2022/04/28 12:58:43;;;;;;;1.48;1.00;;;23.30;92.70;;;;;;5014154;28;20203;-75
2022/04/28 13:01:14;;;;;;;1.58;0.93;;;23.40;93.40;;;;;;5016174;28;20624;-73
2022/04/28 13:03:42;;;;;;;2.10;1.17;;;23.20;92.00;;;;;;5015194;28;20257;-72
2022/04/28 13:06:09;;;;;;;2.05;1.00;;;23.30;92.30;;;;;;5014465;28;20669;-73
2022/04/28 13:08:36;;;;;;;1.55;0.98;;;23.40;92.60;;;;;;5017336;28;20685;-73
2022/04/28 13:11:05;;;;;;;1.33;1.08;;;23.30;90.40;;;;;;5020201;28;20705;-73
2022/04/28 13:13:32;;;;;;;1.42;1.10;;;23.30;90.70;;;;;;5016072;28;20208;-73
2022/04/28 13:15:59;;;;;;;1.33;1.23;;;23.40;91.70;;;;;;5015161;28;20230;-73
2022/04/28 13:18:27;;;;;;;0.90;0.90;;;23.40;91.10;;;;;;5012590;28;20216;-72
2022/04/28 13:20:54;;;;;;;2.00;1.00;;;23.40;91.00;;;;;;5008696;28;20286;-73
2022/04/28 13:23:22;;;;;;;1.17;1.08;;;23.50;92.10;;;;;;5019306;28;20631;-72
2022/04/28 13:25:49;;;;;;;1.15;1.08;;;23.50;90.00;;;;;;5018443;28;20259;-73
2022/04/28 13:28:16;;;;;;;1.10;1.00;;;23.50;89.60;;;;;;5019343;28;20679;-74
2022/04/28 13:30:43;;;;;;;1.33;0.90;;;23.40;90.20;;;;;;5020095;28;20218;-74
2022/04/28 13:33:10;;;;;;;1.25;1.00;;;23.30;87.30;;;;;;5015321;28;20735;-72